Accueil
METAR-TAF:

METAR-TAF

Aéroports :

Aéroport international Ercan

Nicosie, Chypre

latitude: 35-09N, longitude: 033-30E, altitude: 91 m

Observation

Le bulletin a été fait il y a 47 minutes, à 09:50 UTC
Vent 7 kt de est/nord-est, variant entre nord/nord-est et est/sud-est
Température 35°C
Humidité 32%
Pression 1007 hPa
Visibilité 10 km ou plus
Quelques nuages à une hauteur de 2500 ft

METAR: LCEN 160950Z 07007KT 030V110 9999 FEW025 35/16 Q1007 NOSIG RMK RWY11 07007KT

Heure: 13:37 (10:37 UTC)

Prévision

Le bulletin a été fait il y a 5 heures et 57 minutes, à 04:40 UTC
Prévision valable du 16 à 06 UTC au 17 à 06 UTC
Vent 15 kt de ouest
Visibilité 10 km ou plus
Quelques nuages à une hauteur de 2500 ft
Temporairement
du 16 à 12 UTC au 16 à 15 UTC
Nuages fragmentés à une hauteur de 2500 ft

TAF: LCEN 160440Z 1606/1706 28015KT 9999 FEW025 TEMPO 1612/1615 BKN025

Observations et prévisions météorologiques de plus de 4000 aéroports (messages METAR et TAF).

Les stations disponibles sont représentées par des disques jaunes et rouges sur la carte.

Passer la souris dessus pour voir le nom de la station.

Cliquer dessus pour voir les observations et prévisions météorologiques.

Pour changer de carte: cliquez sur les boutons verts avec une croix noire pour zoomer, sur le bouton vert avec un tiret pour effectuer un zoom arrière, ou sur les flèches vertes pour les cartes adjacentes.


METAR-TAF: